sensor_id;sensor_type;location;lat;lon;timestamp;temperature;humidity
7325;DHT22;3703;48.016;7.802;2022-08-19T00:00:59;19.30;99.90
7325;DHT22;3703;48.016;7.802;2022-08-19T00:03:47;19.50;99.90
7325;DHT22;3703;48.016;7.802;2022-08-19T00:06:37;19.70;98.80
7325;DHT22;3703;48.016;7.802;2022-08-19T00:09:28;19.60;99.90
7325;DHT22;3703;48.016;7.802;2022-08-19T00:12:16;19.70;99.90
7325;DHT22;3703;48.016;7.802;2022-08-19T00:15:05;19.80;99.90
7325;DHT22;3703;48.016;7.802;2022-08-19T00:17:58;19.80;99.90
7325;DHT22;3703;48.016;7.802;2022-08-19T00:20:46;19.80;99.90
7325;DHT22;3703;48.016;7.802;2022-08-19T00:23:36;19.80;97.90
7325;DHT22;3703;48.016;7.802;2022-08-19T00:26:24;19.80;97.10
7325;DHT22;3703;48.016;7.802;2022-08-19T00:29:13;19.70;98.10
7325;DHT22;3703;48.016;7.802;2022-08-19T00:32:03;19.50;99.90
7325;DHT22;3703;48.016;7.802;2022-08-19T00:34:51;19.50;99.90
7325;DHT22;3703;48.016;7.802;2022-08-19T00:37:39;19.50;99.90
7325;DHT22;3703;48.016;7.802;2022-08-19T00:40:30;19.50;99.90
7325;DHT22;3703;48.016;7.802;2022-08-19T00:43:20;19.40;99.90
7325;DHT22;3703;48.016;7.802;2022-08-19T00:46:09;19.40;99.90
7325;DHT22;3703;48.016;7.802;2022-08-19T00:48:57;19.30;99.90
7325;DHT22;3703;48.016;7.802;2022-08-19T00:51:46;19.40;99.90
7325;DHT22;3703;48.016;7.802;2022-08-19T00:54:37;19.40;99.90
7325;DHT22;3703;48.016;7.802;2022-08-19T00:57:30;19.50;99.90
7325;DHT22;3703;48.016;7.802;2022-08-19T01:00:20;19.60;99.90
7325;DHT22;3703;48.016;7.802;2022-08-19T01:03:12;19.70;99.90
7325;DHT22;3703;48.016;7.802;2022-08-19T01:06:01;19.60;99.90
7325;DHT22;3703;48.016;7.802;2022-08-19T01:08:49;19.50;99.90
7325;DHT22;3703;48.016;7.802;2022-08-19T01:11:41;19.40;99.90
7325;DHT22;3703;48.016;7.802;2022-08-19T01:14:31;19.30;99.90
7325;DHT22;3703;48.016;7.802;2022-08-19T01:17:19;19.40;99.90
7325;DHT22;3703;48.016;7.802;2022-08-19T01:20:11;19.30;99.90
7325;DHT22;3703;48.016;7.802;2022-08-19T01:23:01;19.30;99.90
7325;DHT22;3703;48.016;7.802;2022-08-19T01:25:52;19.20;99.90
7325;DHT22;3703;48.016;7.802;2022-08-19T01:28:43;19.20;99.90
7325;DHT22;3703;48.016;7.802;2022-08-19T01:31:32;19.20;99.90
7325;DHT22;3703;48.016;7.802;2022-08-19T01:34:19;19.10;99.90
7325;DHT22;3703;48.016;7.802;2022-08-19T01:37:09;19.20;99.90
7325;DHT22;3703;48.016;7.802;2022-08-19T01:39:59;19.20;99.90
7325;DHT22;3703;48.016;7.802;2022-08-19T01:42:47;19.30;99.90
7325;DHT22;3703;48.016;7.802;2022-08-19T01:45:35;19.20;99.90
7325;DHT22;3703;48.016;7.802;2022-08-19T01:48:26;19.30;99.90
7325;DHT22;3703;48.016;7.802;2022-08-19T01:51:15;19.10;99.90
7325;DHT22;3703;48.016;7.802;2022-08-19T01:54:03;19.30;99.90
7325;DHT22;3703;48.016;7.802;2022-08-19T01:56:55;19.30;99.90
7325;DHT22;3703;48.016;7.802;2022-08-19T01:59:45;19.30;99.90
7325;DHT22;3703;48.016;7.802;2022-08-19T02:02:33;19.30;99.90
7325;DHT22;3703;48.016;7.802;2022-08-19T02:05:21;19.20;99.90
7325;DHT22;3703;48.016;7.802;2022-08-19T02:08:10;19.30;99.90
7325;DHT22;3703;48.016;7.802;2022-08-19T02:10:58;19.40;99.90
7325;DHT22;3703;48.016;7.802;2022-08-19T02:13:47;19.60;99.90
7325;DHT22;3703;48.016;7.802;2022-08-19T02:16:36;19.70;99.90
7325;DHT22;3703;48.016;7.802;2022-08-19T02:19:24;19.80;99.90
7325;DHT22;3703;48.016;7.802;2022-08-19T02:22:11;19.80;99.90
7325;DHT22;3703;48.016;7.802;2022-08-19T02:24:59;19.70;99.90
7325;DHT22;3703;48.016;7.802;2022-08-19T02:27:47;19.50;99.90
7325;DHT22;3703;48.016;7.802;2022-08-19T02:30:36;19.40;99.90
7325;DHT22;3703;48.016;7.802;2022-08-19T02:33:24;19.30;99.90
7325;DHT22;3703;48.016;7.802;2022-08-19T02:36:13;19.20;99.90
7325;DHT22;3703;48.016;7.802;2022-08-19T02:39:03;19.30;99.90
7325;DHT22;3703;48.016;7.802;2022-08-19T02:41:49;19.20;99.90
7325;DHT22;3703;48.016;7.802;2022-08-19T02:44:38;19.10;99.90
7325;DHT22;3703;48.016;7.802;2022-08-19T02:47:27;19.10;99.90
7325;DHT22;3703;48.016;7.802;2022-08-19T02:50:14;19.10;99.90
7325;DHT22;3703;48.016;7.802;2022-08-19T02:53:02;19.20;99.90
7325;DHT22;3703;48.016;7.802;2022-08-19T02:55:50;19.30;99.90
7325;DHT22;3703;48.016;7.802;2022-08-19T02:58:38;19.40;99.90
7325;DHT22;3703;48.016;7.802;2022-08-19T03:01:29;19.50;99.90
7325;DHT22;3703;48.016;7.802;2022-08-19T03:04:19;19.60;99.90
7325;DHT22;3703;48.016;7.802;2022-08-19T03:07:09;19.60;99.90
7325;DHT22;3703;48.016;7.802;2022-08-19T03:10:00;19.70;99.50
7325;DHT22;3703;48.016;7.802;2022-08-19T03:12:48;19.70;99.90
7325;DHT22;3703;48.016;7.802;2022-08-19T03:15:39;19.80;97.90
7325;DHT22;3703;48.016;7.802;2022-08-19T03:18:28;19.80;98.80
7325;DHT22;3703;48.016;7.802;2022-08-19T03:21:18;19.80;98.10
7325;DHT22;3703;48.016;7.802;2022-08-19T03:24:08;19.60;97.90
7325;DHT22;3703;48.016;7.802;2022-08-19T03:26:56;19.50;99.90
7325;DHT22;3703;48.016;7.802;2022-08-19T03:29:44;19.50;99.90
7325;DHT22;3703;48.016;7.802;2022-08-19T03:32:32;19.50;99.90
7325;DHT22;3703;48.016;7.802;2022-08-19T03:35:20;19.60;99.90
7325;DHT22;3703;48.016;7.802;2022-08-19T03:38:10;19.70;99.10
7325;DHT22;3703;48.016;7.802;2022-08-19T03:41:01;19.80;99.00
7325;DHT22;3703;48.016;7.802;2022-08-19T03:43:53;19.80;99.60
7325;DHT22;3703;48.016;7.802;2022-08-19T03:46:41;19.70;99.90
7325;DHT22;3703;48.016;7.802;2022-08-19T03:49:31;19.80;98.70
7325;DHT22;3703;48.016;7.802;2022-08-19T03:52:21;19.80;98.20
7325;DHT22;3703;48.016;7.802;2022-08-19T03:55:10;19.70;99.90
7325;DHT22;3703;48.016;7.802;2022-08-19T03:57:57;19.60;98.50
7325;DHT22;3703;48.016;7.802;2022-08-19T04:00:45;19.80;98.80
7325;DHT22;3703;48.016;7.802;2022-08-19T04:03:33;19.80;97.20
7325;DHT22;3703;48.016;7.802;2022-08-19T04:06:24;19.90;99.00
7325;DHT22;3703;48.016;7.802;2022-08-19T04:09:13;19.80;98.90
7325;DHT22;3703;48.016;7.802;2022-08-19T04:12:04;19.80;98.60
7325;DHT22;3703;48.016;7.802;2022-08-19T04:14:52;19.90;95.90
7325;DHT22;3703;48.016;7.802;2022-08-19T04:17:40;20.00;94.90
7325;DHT22;3703;48.016;7.802;2022-08-19T04:20:27;20.00;96.70
7325;DHT22;3703;48.016;7.802;2022-08-19T04:23:16;19.80;99.20
7325;DHT22;3703;48.016;7.802;2022-08-19T04:26:04;19.50;99.90
7325;DHT22;3703;48.016;7.802;2022-08-19T04:28:53;19.70;99.90
7325;DHT22;3703;48.016;7.802;2022-08-19T04:31:42;19.80;99.40
7325;DHT22;3703;48.016;7.802;2022-08-19T04:34:31;19.80;98.30
7325;DHT22;3703;48.016;7.802;2022-08-19T04:37:18;19.60;99.90
7325;DHT22;3703;48.016;7.802;2022-08-19T04:40:07;19.60;99.90
7325;DHT22;3703;48.016;7.802;2022-08-19T04:43:13;19.70;99.30
7325;DHT22;3703;48.016;7.802;2022-08-19T04:46:06;19.70;99.00
7325;DHT22;3703;48.016;7.802;2022-08-19T04:48:54;19.90;99.90
7325;DHT22;3703;48.016;7.802;2022-08-19T04:51:44;20.20;93.50
7325;DHT22;3703;48.016;7.802;2022-08-19T04:54:33;20.20;91.20
7325;DHT22;3703;48.016;7.802;2022-08-19T04:57:21;20.20;91.70
7325;DHT22;3703;48.016;7.802;2022-08-19T05:00:10;20.20;90.40
7325;DHT22;3703;48.016;7.802;2022-08-19T05:03:00;20.30;91.10
7325;DHT22;3703;48.016;7.802;2022-08-19T05:05:48;20.20;91.50
7325;DHT22;3703;48.016;7.802;2022-08-19T05:08:37;20.50;92.30
7325;DHT22;3703;48.016;7.802;2022-08-19T05:11:30;20.20;92.40
7325;DHT22;3703;48.016;7.802;2022-08-19T05:14:19;20.20;91.70
7325;DHT22;3703;48.016;7.802;2022-08-19T05:17:07;20.30;93.50
7325;DHT22;3703;48.016;7.802;2022-08-19T05:19:57;20.20;95.50
7325;DHT22;3703;48.016;7.802;2022-08-19T05:23:01;19.90;98.30
7325;DHT22;3703;48.016;7.802;2022-08-19T05:25:49;19.80;99.90
7325;DHT22;3703;48.016;7.802;2022-08-19T05:28:37;19.70;99.80
7325;DHT22;3703;48.016;7.802;2022-08-19T05:31:25;19.80;99.10
7325;DHT22;3703;48.016;7.802;2022-08-19T05:34:12;19.70;99.40
7325;DHT22;3703;48.016;7.802;2022-08-19T05:37:02;19.80;99.40
7325;DHT22;3703;48.016;7.802;2022-08-19T05:39:50;19.90;98.30
7325;DHT22;3703;48.016;7.802;2022-08-19T05:42:38;20.00;95.90
7325;DHT22;3703;48.016;7.802;2022-08-19T05:45:26;20.10;94.40
7325;DHT22;3703;48.016;7.802;2022-08-19T05:48:14;20.10;93.30
7325;DHT22;3703;48.016;7.802;2022-08-19T05:51:04;20.00;94.00
7325;DHT22;3703;48.016;7.802;2022-08-19T05:53:54;20.00;94.90
7325;DHT22;3703;48.016;7.802;2022-08-19T05:56:43;20.00;95.40
7325;DHT22;3703;48.016;7.802;2022-08-19T05:59:33;20.00;93.90
7325;DHT22;3703;48.016;7.802;2022-08-19T06:02:21;20.00;95.40
7325;DHT22;3703;48.016;7.802;2022-08-19T06:05:09;19.90;96.40
7325;DHT22;3703;48.016;7.802;2022-08-19T06:07:57;19.90;97.20
7325;DHT22;3703;48.016;7.802;2022-08-19T06:10:47;19.90;97.80
7325;DHT22;3703;48.016;7.802;2022-08-19T06:13:34;19.90;97.40
7325;DHT22;3703;48.016;7.802;2022-08-19T06:16:22;19.80;97.70
7325;DHT22;3703;48.016;7.802;2022-08-19T06:19:12;19.80;99.00
7325;DHT22;3703;48.016;7.802;2022-08-19T06:22:02;19.80;99.10
7325;DHT22;3703;48.016;7.802;2022-08-19T06:24:52;19.90;98.60
7325;DHT22;3703;48.016;7.802;2022-08-19T06:27:42;19.70;99.90
7325;DHT22;3703;48.016;7.802;2022-08-19T06:30:29;19.80;99.90
7325;DHT22;3703;48.016;7.802;2022-08-19T06:33:17;20.00;99.00
7325;DHT22;3703;48.016;7.802;2022-08-19T06:36:05;20.20;95.20
7325;DHT22;3703;48.016;7.802;2022-08-19T06:38:53;20.40;92.10
7325;DHT22;3703;48.016;7.802;2022-08-19T06:41:45;20.40;90.60
7325;DHT22;3703;48.016;7.802;2022-08-19T06:44:36;20.20;93.20
7325;DHT22;3703;48.016;7.802;2022-08-19T06:47:26;20.10;94.20
7325;DHT22;3703;48.016;7.802;2022-08-19T06:50:13;20.10;95.50
7325;DHT22;3703;48.016;7.802;2022-08-19T06:53:01;19.90;97.80
7325;DHT22;3703;48.016;7.802;2022-08-19T06:55:49;19.80;99.10
7325;DHT22;3703;48.016;7.802;2022-08-19T06:58:46;19.70;99.90
7325;DHT22;3703;48.016;7.802;2022-08-19T07:01:42;19.70;99.90
7325;DHT22;3703;48.016;7.802;2022-08-19T07:04:32;19.70;99.90
7325;DHT22;3703;48.016;7.802;2022-08-19T07:07:22;19.80;99.90
7325;DHT22;3703;48.016;7.802;2022-08-19T07:10:09;19.90;99.90
7325;DHT22;3703;48.016;7.802;2022-08-19T07:12:57;20.10;99.90
7325;DHT22;3703;48.016;7.802;2022-08-19T07:15:45;20.10;98.40
7325;DHT22;3703;48.016;7.802;2022-08-19T07:18:35;20.10;99.50
7325;DHT22;3703;48.016;7.802;2022-08-19T07:21:26;20.10;99.30
7325;DHT22;3703;48.016;7.802;2022-08-19T07:24:15;20.10;99.90
7325;DHT22;3703;48.016;7.802;2022-08-19T07:27:05;20.00;99.90
7325;DHT22;3703;48.016;7.802;2022-08-19T07:29:55;20.20;99.90
7325;DHT22;3703;48.016;7.802;2022-08-19T07:32:43;20.30;99.30
7325;DHT22;3703;48.016;7.802;2022-08-19T07:35:31;20.20;99.40
7325;DHT22;3703;48.016;7.802;2022-08-19T07:38:19;20.20;98.70
7325;DHT22;3703;48.016;7.802;2022-08-19T07:41:08;20.30;97.70
7325;DHT22;3703;48.016;7.802;2022-08-19T07:43:56;20.30;99.90
7325;DHT22;3703;48.016;7.802;2022-08-19T07:46:47;20.30;98.30
7325;DHT22;3703;48.016;7.802;2022-08-19T07:49:36;20.30;97.00
7325;DHT22;3703;48.016;7.802;2022-08-19T07:52:25;20.20;99.90
7325;DHT22;3703;48.016;7.802;2022-08-19T07:55:13;20.20;99.90
7325;DHT22;3703;48.016;7.802;2022-08-19T07:58:00;20.20;99.90
7325;DHT22;3703;48.016;7.802;2022-08-19T08:00:49;20.30;99.10
7325;DHT22;3703;48.016;7.802;2022-08-19T08:03:38;20.40;99.90
7325;DHT22;3703;48.016;7.802;2022-08-19T08:06:43;20.50;99.70
7325;DHT22;3703;48.016;7.802;2022-08-19T08:09:49;20.50;99.90
7325;DHT22;3703;48.016;7.802;2022-08-19T08:12:39;20.50;97.40
7325;DHT22;3703;48.016;7.802;2022-08-19T08:15:27;20.50;99.10
7325;DHT22;3703;48.016;7.802;2022-08-19T08:18:14;20.50;99.10
7325;DHT22;3703;48.016;7.802;2022-08-19T08:21:02;20.60;99.60
7325;DHT22;3703;48.016;7.802;2022-08-19T08:23:50;20.60;98.60
7325;DHT22;3703;48.016;7.802;2022-08-19T08:26:43;20.60;97.60
7325;DHT22;3703;48.016;7.802;2022-08-19T08:29:31;20.60;96.90
7325;DHT22;3703;48.016;7.802;2022-08-19T08:32:19;20.60;96.20
7325;DHT22;3703;48.016;7.802;2022-08-19T08:35:10;20.60;97.20
7325;DHT22;3703;48.016;7.802;2022-08-19T08:38:00;20.70;98.00
7325;DHT22;3703;48.016;7.802;2022-08-19T08:40:51;20.80;90.90
7325;DHT22;3703;48.016;7.802;2022-08-19T08:43:46;20.80;92.80
7325;DHT22;3703;48.016;7.802;2022-08-19T08:46:39;21.00;90.80
7325;DHT22;3703;48.016;7.802;2022-08-19T08:49:43;21.00;87.00
7325;DHT22;3703;48.016;7.802;2022-08-19T08:52:37;21.30;86.70
7325;DHT22;3703;48.016;7.802;2022-08-19T08:55:29;21.40;66.90
7325;DHT22;3703;48.016;7.802;2022-08-19T08:58:21;21.20;69.10
7325;DHT22;3703;48.016;7.802;2022-08-19T09:01:14;21.20;69.00
7325;DHT22;3703;48.016;7.802;2022-08-19T09:04:03;21.30;71.00
7325;DHT22;3703;48.016;7.802;2022-08-19T09:06:57;21.40;73.90
7325;DHT22;3703;48.016;7.802;2022-08-19T09:09:58;21.40;70.40
7325;DHT22;3703;48.016;7.802;2022-08-19T09:12:59;21.30;60.40
7325;DHT22;3703;48.016;7.802;2022-08-19T09:15:58;21.30;65.40
7325;DHT22;3703;48.016;7.802;2022-08-19T09:18:52;21.10;69.80
7325;DHT22;3703;48.016;7.802;2022-08-19T09:21:41;21.10;75.50
7325;DHT22;3703;48.016;7.802;2022-08-19T09:24:28;21.20;74.20
7325;DHT22;3703;48.016;7.802;2022-08-19T09:27:16;21.40;77.10
7325;DHT22;3703;48.016;7.802;2022-08-19T09:30:05;21.60;71.70
7325;DHT22;3703;48.016;7.802;2022-08-19T09:32:54;21.60;71.20
7325;DHT22;3703;48.016;7.802;2022-08-19T09:35:44;21.60;46.70
7325;DHT22;3703;48.016;7.802;2022-08-19T09:38:32;21.70;46.50
7325;DHT22;3703;48.016;7.802;2022-08-19T09:41:23;21.60;38.10
7325;DHT22;3703;48.016;7.802;2022-08-19T09:44:11;21.50;27.10
7325;DHT22;3703;48.016;7.802;2022-08-19T09:47:00;21.40;22.20
7325;DHT22;3703;48.016;7.802;2022-08-19T09:49:49;21.60;37.10
7325;DHT22;3703;48.016;7.802;2022-08-19T09:52:38;21.90;35.30
7325;DHT22;3703;48.016;7.802;2022-08-19T09:55:28;22.10;34.10
7325;DHT22;3703;48.016;7.802;2022-08-19T09:58:15;22.30;27.50
7325;DHT22;3703;48.016;7.802;2022-08-19T10:01:04;22.30;11.10
7325;DHT22;3703;48.016;7.802;2022-08-19T10:03:56;22.20;16.70
7325;DHT22;3703;48.016;7.802;2022-08-19T10:06:44;22.30;23.00
7325;DHT22;3703;48.016;7.802;2022-08-19T10:09:35;22.20;17.60
7325;DHT22;3703;48.016;7.802;2022-08-19T10:12:22;22.10;12.70
7325;DHT22;3703;48.016;7.802;2022-08-19T10:15:10;22.20;17.50
7325;DHT22;3703;48.016;7.802;2022-08-19T10:17:58;22.10;16.90
7325;DHT22;3703;48.016;7.802;2022-08-19T10:20:48;22.40;22.50
7325;DHT22;3703;48.016;7.802;2022-08-19T10:23:38;22.40;14.70
7325;DHT22;3703;48.016;7.802;2022-08-19T10:26:34;22.80;20.70
7325;DHT22;3703;48.016;7.802;2022-08-19T10:29:23;23.10;14.90
7325;DHT22;3703;48.016;7.802;2022-08-19T10:32:10;23.30;4.10
7325;DHT22;3703;48.016;7.802;2022-08-19T10:34:58;23.00;1.00
7325;DHT22;3703;48.016;7.802;2022-08-19T10:37:46;22.50;1.00
7325;DHT22;3703;48.016;7.802;2022-08-19T10:40:34;22.30;4.60
7325;DHT22;3703;48.016;7.802;2022-08-19T10:43:24;22.50;21.80
7325;DHT22;3703;48.016;7.802;2022-08-19T10:46:13;22.70;17.60
7325;DHT22;3703;48.016;7.802;2022-08-19T10:49:03;22.90;1.20
7325;DHT22;3703;48.016;7.802;2022-08-19T10:51:51;23.10;8.20
7325;DHT22;3703;48.016;7.802;2022-08-19T10:54:56;23.10;1.00
7325;DHT22;3703;48.016;7.802;2022-08-19T10:58:01;23.10;1.00
7325;DHT22;3703;48.016;7.802;2022-08-19T11:00:53;23.40;1.00
7325;DHT22;3703;48.016;7.802;2022-08-19T11:03:42;23.10;1.00
7325;DHT22;3703;48.016;7.802;2022-08-19T11:06:32;23.00;1.00
7325;DHT22;3703;48.016;7.802;2022-08-19T11:09:21;23.10;1.00
7325;DHT22;3703;48.016;7.802;2022-08-19T11:12:11;23.00;1.00
7325;DHT22;3703;48.016;7.802;2022-08-19T11:15:00;22.90;1.00
7325;DHT22;3703;48.016;7.802;2022-08-19T11:17:51;22.90;1.00
7325;DHT22;3703;48.016;7.802;2022-08-19T11:20:40;23.10;1.00
7325;DHT22;3703;48.016;7.802;2022-08-19T11:23:27;23.20;1.00
7325;DHT22;3703;48.016;7.802;2022-08-19T11:26:15;23.50;1.00
7325;DHT22;3703;48.016;7.802;2022-08-19T11:29:04;23.80;1.00
7325;DHT22;3703;48.016;7.802;2022-08-19T11:31:57;23.70;1.00
7325;DHT22;3703;48.016;7.802;2022-08-19T11:34:47;23.70;1.00
7325;DHT22;3703;48.016;7.802;2022-08-19T11:37:34;24.10;1.00
7325;DHT22;3703;48.016;7.802;2022-08-19T11:40:24;24.40;1.00
7325;DHT22;3703;48.016;7.802;2022-08-19T11:43:11;24.70;1.00
7325;DHT22;3703;48.016;7.802;2022-08-19T11:45:59;24.50;1.00
7325;DHT22;3703;48.016;7.802;2022-08-19T11:48:47;24.10;1.00
7325;DHT22;3703;48.016;7.802;2022-08-19T11:51:38;24.00;1.00
7325;DHT22;3703;48.016;7.802;2022-08-19T11:54:25;24.30;1.00
7325;DHT22;3703;48.016;7.802;2022-08-19T11:57:13;24.80;1.00
7325;DHT22;3703;48.016;7.802;2022-08-19T12:00:04;25.00;1.00
7325;DHT22;3703;48.016;7.802;2022-08-19T12:02:53;24.80;1.00
7325;DHT22;3703;48.016;7.802;2022-08-19T12:05:41;25.00;1.00
7325;DHT22;3703;48.016;7.802;2022-08-19T12:08:30;24.90;1.00
7325;DHT22;3703;48.016;7.802;2022-08-19T12:11:18;24.90;1.00
7325;DHT22;3703;48.016;7.802;2022-08-19T12:14:09;24.50;1.00
7325;DHT22;3703;48.016;7.802;2022-08-19T12:17:00;24.70;1.00
7325;DHT22;3703;48.016;7.802;2022-08-19T12:19:48;24.60;1.00
7325;DHT22;3703;48.016;7.802;2022-08-19T12:22:36;24.60;1.00
7325;DHT22;3703;48.016;7.802;2022-08-19T12:25:25;24.90;1.00
7325;DHT22;3703;48.016;7.802;2022-08-19T12:28:13;25.20;1.00
7325;DHT22;3703;48.016;7.802;2022-08-19T12:31:01;24.90;1.00
7325;DHT22;3703;48.016;7.802;2022-08-19T12:33:49;25.20;1.00
7325;DHT22;3703;48.016;7.802;2022-08-19T12:36:38;25.30;1.00
7325;DHT22;3703;48.016;7.802;2022-08-19T12:39:26;24.80;1.00
7325;DHT22;3703;48.016;7.802;2022-08-19T12:42:15;24.50;1.00
7325;DHT22;3703;48.016;7.802;2022-08-19T12:45:04;24.60;1.00
7325;DHT22;3703;48.016;7.802;2022-08-19T12:47:52;24.80;1.00
7325;DHT22;3703;48.016;7.802;2022-08-19T12:50:40;24.80;1.00
7325;DHT22;3703;48.016;7.802;2022-08-19T12:53:28;24.80;1.00
7325;DHT22;3703;48.016;7.802;2022-08-19T12:56:16;25.00;1.00
7325;DHT22;3703;48.016;7.802;2022-08-19T12:59:06;24.80;1.00
7325;DHT22;3703;48.016;7.802;2022-08-19T13:01:54;24.90;1.00
7325;DHT22;3703;48.016;7.802;2022-08-19T13:04:43;25.10;1.00
7325;DHT22;3703;48.016;7.802;2022-08-19T13:07:32;25.10;1.00
7325;DHT22;3703;48.016;7.802;2022-08-19T13:10:21;24.40;1.00
7325;DHT22;3703;48.016;7.802;2022-08-19T13:13:09;24.20;1.00
7325;DHT22;3703;48.016;7.802;2022-08-19T13:16:01;24.50;1.00
7325;DHT22;3703;48.016;7.802;2022-08-19T13:18:50;24.60;1.00
7325;DHT22;3703;48.016;7.802;2022-08-19T13:21:38;25.00;1.00
7325;DHT22;3703;48.016;7.802;2022-08-19T13:24:26;25.00;1.00
7325;DHT22;3703;48.016;7.802;2022-08-19T13:27:14;24.70;1.00
7325;DHT22;3703;48.016;7.802;2022-08-19T13:30:03;24.80;1.00
7325;DHT22;3703;48.016;7.802;2022-08-19T13:33:10;25.30;1.00
7325;DHT22;3703;48.016;7.802;2022-08-19T13:36:00;25.80;1.00
7325;DHT22;3703;48.016;7.802;2022-08-19T13:38:48;25.70;99.90
7325;DHT22;3703;48.016;7.802;2022-08-19T13:41:36;25.70;99.90
7325;DHT22;3703;48.016;7.802;2022-08-19T13:44:24;25.80;99.90
7325;DHT22;3703;48.016;7.802;2022-08-19T13:47:12;26.20;1.00
7325;DHT22;3703;48.016;7.802;2022-08-19T13:50:02;26.20;99.90
7325;DHT22;3703;48.016;7.802;2022-08-19T13:52:50;26.00;99.90
7325;DHT22;3703;48.016;7.802;2022-08-19T13:55:39;26.10;56.90
7325;DHT22;3703;48.016;7.802;2022-08-19T13:58:27;26.40;99.90
7325;DHT22;3703;48.016;7.802;2022-08-19T14:01:20;25.90;1.00
7325;DHT22;3703;48.016;7.802;2022-08-19T14:04:08;26.00;99.90
7325;DHT22;3703;48.016;7.802;2022-08-19T14:06:57;26.00;99.90
7325;DHT22;3703;48.016;7.802;2022-08-19T14:09:45;26.00;99.90
7325;DHT22;3703;48.016;7.802;2022-08-19T14:12:33;26.00;99.90
7325;DHT22;3703;48.016;7.802;2022-08-19T14:15:21;25.60;99.90
7325;DHT22;3703;48.016;7.802;2022-08-19T14:18:10;25.20;99.90
7325;DHT22;3703;48.016;7.802;2022-08-19T14:20:58;25.00;99.90
7325;DHT22;3703;48.016;7.802;2022-08-19T14:23:47;24.80;1.00
7325;DHT22;3703;48.016;7.802;2022-08-19T14:26:34;24.80;1.00
7325;DHT22;3703;48.016;7.802;2022-08-19T14:29:22;24.50;1.00
7325;DHT22;3703;48.016;7.802;2022-08-19T14:32:09;24.50;1.00
7325;DHT22;3703;48.016;7.802;2022-08-19T14:34:58;24.40;1.00
7325;DHT22;3703;48.016;7.802;2022-08-19T14:37:46;24.20;1.00
7325;DHT22;3703;48.016;7.802;2022-08-19T14:40:35;24.20;1.00
7325;DHT22;3703;48.016;7.802;2022-08-19T14:43:23;24.10;1.00
7325;DHT22;3703;48.016;7.802;2022-08-19T14:46:11;23.90;1.00
7325;DHT22;3703;48.016;7.802;2022-08-19T14:49:00;23.60;1.00
7325;DHT22;3703;48.016;7.802;2022-08-19T14:51:48;23.60;1.00
7325;DHT22;3703;48.016;7.802;2022-08-19T14:54:36;23.40;1.00
7325;DHT22;3703;48.016;7.802;2022-08-19T14:57:25;23.30;1.00
7325;DHT22;3703;48.016;7.802;2022-08-19T15:00:14;23.20;1.00
7325;DHT22;3703;48.016;7.802;2022-08-19T15:03:03;23.20;1.00
7325;DHT22;3703;48.016;7.802;2022-08-19T15:05:51;23.20;1.00
7325;DHT22;3703;48.016;7.802;2022-08-19T15:08:39;23.10;1.10
7325;DHT22;3703;48.016;7.802;2022-08-19T15:11:29;23.10;3.10
7325;DHT22;3703;48.016;7.802;2022-08-19T15:14:20;23.00;1.00
7325;DHT22;3703;48.016;7.802;2022-08-19T15:17:07;23.00;1.00
7325;DHT22;3703;48.016;7.802;2022-08-19T15:19:55;22.90;1.00
7325;DHT22;3703;48.016;7.802;2022-08-19T15:22:43;22.90;1.00
7325;DHT22;3703;48.016;7.802;2022-08-19T15:25:31;22.90;1.00
7325;DHT22;3703;48.016;7.802;2022-08-19T15:28:20;22.80;1.00
7325;DHT22;3703;48.016;7.802;2022-08-19T15:31:10;22.70;1.00
7325;DHT22;3703;48.016;7.802;2022-08-19T15:33:58;22.70;1.00
7325;DHT22;3703;48.016;7.802;2022-08-19T15:36:46;22.70;1.00
7325;DHT22;3703;48.016;7.802;2022-08-19T15:39:33;22.80;1.00
7325;DHT22;3703;48.016;7.802;2022-08-19T15:42:21;22.90;1.00
7325;DHT22;3703;48.016;7.802;2022-08-19T15:45:09;22.90;1.00
7325;DHT22;3703;48.016;7.802;2022-08-19T15:48:01;23.00;1.00
7325;DHT22;3703;48.016;7.802;2022-08-19T15:50:50;23.20;1.00
7325;DHT22;3703;48.016;7.802;2022-08-19T15:53:37;23.30;1.00
7325;DHT22;3703;48.016;7.802;2022-08-19T15:56:27;23.40;1.00
7325;DHT22;3703;48.016;7.802;2022-08-19T15:59:38;23.30;1.00
7325;DHT22;3703;48.016;7.802;2022-08-19T16:02:43;23.40;1.00
7325;DHT22;3703;48.016;7.802;2022-08-19T16:05:49;23.40;1.00
7325;DHT22;3703;48.016;7.802;2022-08-19T16:09:09;23.50;1.00
7325;DHT22;3703;48.016;7.802;2022-08-19T16:11:59;23.50;1.00
7325;DHT22;3703;48.016;7.802;2022-08-19T16:14:48;23.50;1.00
7325;DHT22;3703;48.016;7.802;2022-08-19T16:17:36;23.40;1.00
7325;DHT22;3703;48.016;7.802;2022-08-19T16:20:24;23.30;1.00
7325;DHT22;3703;48.016;7.802;2022-08-19T16:23:14;23.20;1.00
7325;DHT22;3703;48.016;7.802;2022-08-19T16:26:02;23.30;1.00
7325;DHT22;3703;48.016;7.802;2022-08-19T16:28:50;23.20;1.00
7325;DHT22;3703;48.016;7.802;2022-08-19T16:31:38;23.30;1.00
7325;DHT22;3703;48.016;7.802;2022-08-19T16:34:26;23.30;1.00
7325;DHT22;3703;48.016;7.802;2022-08-19T16:37:15;23.30;1.00
7325;DHT22;3703;48.016;7.802;2022-08-19T16:40:05;23.40;1.00
7325;DHT22;3703;48.016;7.802;2022-08-19T16:42:54;23.40;1.00
7325;DHT22;3703;48.016;7.802;2022-08-19T16:45:42;23.50;1.00
7325;DHT22;3703;48.016;7.802;2022-08-19T16:48:30;23.50;1.00
7325;DHT22;3703;48.016;7.802;2022-08-19T16:51:18;23.50;1.00
7325;DHT22;3703;48.016;7.802;2022-08-19T16:54:07;23.50;1.00
7325;DHT22;3703;48.016;7.802;2022-08-19T16:56:57;23.50;1.00
7325;DHT22;3703;48.016;7.802;2022-08-19T16:59:45;23.60;1.00
7325;DHT22;3703;48.016;7.802;2022-08-19T17:02:33;23.60;1.00
7325;DHT22;3703;48.016;7.802;2022-08-19T17:05:22;23.60;1.00
7325;DHT22;3703;48.016;7.802;2022-08-19T17:08:10;23.60;1.00
7325;DHT22;3703;48.016;7.802;2022-08-19T17:10:58;23.60;1.00
7325;DHT22;3703;48.016;7.802;2022-08-19T17:13:49;23.60;1.00
7325;DHT22;3703;48.016;7.802;2022-08-19T17:16:37;23.50;1.00
7325;DHT22;3703;48.016;7.802;2022-08-19T17:19:25;23.40;1.00
7325;DHT22;3703;48.016;7.802;2022-08-19T17:22:13;23.40;1.00
7325;DHT22;3703;48.016;7.802;2022-08-19T17:25:01;23.30;1.00
7325;DHT22;3703;48.016;7.802;2022-08-19T17:27:49;23.20;1.00
7325;DHT22;3703;48.016;7.802;2022-08-19T17:30:39;23.10;1.00
7325;DHT22;3703;48.016;7.802;2022-08-19T17:33:27;23.20;1.00
7325;DHT22;3703;48.016;7.802;2022-08-19T17:39:03;23.10;1.00
7325;DHT22;3703;48.016;7.802;2022-08-19T17:41:51;23.10;1.00
7325;DHT22;3703;48.016;7.802;2022-08-19T17:44:38;23.10;1.00
7325;DHT22;3703;48.016;7.802;2022-08-19T17:47:28;23.10;1.00
7325;DHT22;3703;48.016;7.802;2022-08-19T17:50:16;23.10;1.00
7325;DHT22;3703;48.016;7.802;2022-08-19T17:53:04;23.00;1.00
7325;DHT22;3703;48.016;7.802;2022-08-19T17:55:52;23.00;1.00
7325;DHT22;3703;48.016;7.802;2022-08-19T17:58:40;23.00;1.00
7325;DHT22;3703;48.016;7.802;2022-08-19T18:01:29;23.00;1.00
7325;DHT22;3703;48.016;7.802;2022-08-19T18:04:18;22.90;1.00
7325;DHT22;3703;48.016;7.802;2022-08-19T18:07:06;22.90;1.00
7325;DHT22;3703;48.016;7.802;2022-08-19T18:09:54;22.90;1.00
7325;DHT22;3703;48.016;7.802;2022-08-19T18:12:42;22.90;1.00
7325;DHT22;3703;48.016;7.802;2022-08-19T18:15:30;22.90;1.00
7325;DHT22;3703;48.016;7.802;2022-08-19T18:18:18;22.80;1.00
7325;DHT22;3703;48.016;7.802;2022-08-19T18:21:08;22.80;1.00
7325;DHT22;3703;48.016;7.802;2022-08-19T18:23:57;22.70;1.00
7325;DHT22;3703;48.016;7.802;2022-08-19T18:26:45;22.60;1.00
7325;DHT22;3703;48.016;7.802;2022-08-19T18:29:33;22.50;1.00
7325;DHT22;3703;48.016;7.802;2022-08-19T18:32:23;22.30;1.00
7325;DHT22;3703;48.016;7.802;2022-08-19T18:35:14;22.50;1.00